createdAt,value
2019-03-27T00:00:29.765Z,11.00
2019-03-27T00:03:02.246Z,11.00
2019-03-27T00:05:34.738Z,11.00
2019-03-27T00:08:07.257Z,11.00
2019-03-27T00:10:40.367Z,11.00
2019-03-27T00:13:12.839Z,10.90
2019-03-27T00:15:45.438Z,11.00
2019-03-27T00:18:17.906Z,10.90
2019-03-27T00:20:50.387Z,10.90
2019-03-27T00:23:22.839Z,10.90
2019-03-27T00:25:55.479Z,10.90
2019-03-27T00:28:27.947Z,10.90
2019-03-27T00:31:00.623Z,10.90
2019-03-27T00:33:33.186Z,10.90
2019-03-27T00:36:05.860Z,10.80
2019-03-27T00:38:38.448Z,10.80
2019-03-27T00:41:11.021Z,10.80
2019-03-27T00:43:43.499Z,10.80
2019-03-27T00:46:15.975Z,10.80
2019-03-27T00:48:48.566Z,10.80
2019-03-27T00:51:21.069Z,10.80
2019-03-27T00:53:53.545Z,10.80
2019-03-27T00:56:26.063Z,10.80
2019-03-27T00:58:58.565Z,10.80
2019-03-27T01:01:31.037Z,10.80
2019-03-27T01:04:03.514Z,10.80
2019-03-27T01:06:36.152Z,10.80
2019-03-27T01:09:08.979Z,10.70
2019-03-27T01:11:41.436Z,10.70
2019-03-27T01:14:13.961Z,10.70
2019-03-27T01:16:46.441Z,10.70
2019-03-27T01:19:18.938Z,10.70
2019-03-27T01:21:51.426Z,10.70
2019-03-27T01:24:23.920Z,10.60
2019-03-27T01:26:56.500Z,10.60
2019-03-27T01:29:29.036Z,10.60
2019-03-27T01:32:02.593Z,10.60
2019-03-27T01:34:35.196Z,10.60
2019-03-27T01:37:07.791Z,10.50
2019-03-27T01:39:40.240Z,10.50
2019-03-27T01:42:12.728Z,10.50
2019-03-27T01:44:45.202Z,10.50
2019-03-27T01:47:17.693Z,10.50
2019-03-27T01:49:50.162Z,10.40
2019-03-27T01:52:22.679Z,10.50
2019-03-27T01:54:55.134Z,10.50
2019-03-27T01:57:27.635Z,10.50
2019-03-27T02:00:00.328Z,10.50
2019-03-27T02:02:32.987Z,10.50
2019-03-27T02:05:07.707Z,10.50
2019-03-27T02:07:40.284Z,10.50
2019-03-27T02:10:13.213Z,10.50
2019-03-27T02:12:45.698Z,10.50
2019-03-27T02:15:18.355Z,10.50
2019-03-27T02:17:50.853Z,10.50
2019-03-27T02:20:23.383Z,10.50
2019-03-27T02:22:57.248Z,10.40
2019-03-27T02:25:29.718Z,10.40
2019-03-27T02:28:02.217Z,10.40
2019-03-27T02:30:34.692Z,10.40
2019-03-27T02:33:07.202Z,10.40
2019-03-27T02:35:39.697Z,10.40
2019-03-27T02:38:13.741Z,10.40
2019-03-27T02:40:46.226Z,10.30
2019-03-27T02:43:18.731Z,10.30
2019-03-27T02:45:51.220Z,10.30
2019-03-27T02:48:23.717Z,10.20
2019-03-27T02:50:56.233Z,10.20
2019-03-27T02:53:28.810Z,10.10
2019-03-27T02:56:01.333Z,10.10
2019-03-27T02:58:33.838Z,10.10
2019-03-27T03:01:06.991Z,10.00
2019-03-27T03:03:39.621Z,10.00
2019-03-27T03:06:12.121Z,10.00
2019-03-27T03:08:44.655Z,9.90
2019-03-27T03:11:17.147Z,9.90
2019-03-27T03:13:49.612Z,9.80
2019-03-27T03:16:22.102Z,9.80
2019-03-27T03:18:54.684Z,9.70
2019-03-27T03:21:27.193Z,9.60
2019-03-27T03:23:59.736Z,9.60
2019-03-27T03:26:32.270Z,9.60
2019-03-27T03:29:04.852Z,9.50
2019-03-27T03:31:37.403Z,9.50
2019-03-27T03:34:11.105Z,9.40
2019-03-27T03:36:43.594Z,9.40
2019-03-27T03:39:16.042Z,9.40
2019-03-27T03:41:49.862Z,9.30
2019-03-27T03:44:22.514Z,9.30
2019-03-27T03:47:00.106Z,9.30
2019-03-27T03:49:29.239Z,9.30
2019-03-27T03:52:01.858Z,9.30
2019-03-27T03:54:34.848Z,9.30
2019-03-27T03:57:08.490Z,9.30
2019-03-27T03:59:42.957Z,9.30
2019-03-27T04:02:17.439Z,9.40
2019-03-27T04:04:52.760Z,9.40
2019-03-27T04:07:25.210Z,9.40
2019-03-27T04:09:57.669Z,9.40
2019-03-27T04:12:30.101Z,9.40
2019-03-27T04:15:02.597Z,9.40
2019-03-27T04:17:35.095Z,9.40
2019-03-27T04:20:08.550Z,9.40
2019-03-27T04:22:41.118Z,9.30
2019-03-27T04:25:13.654Z,9.30
2019-03-27T04:27:46.115Z,9.30
2019-03-27T04:30:18.579Z,9.30
2019-03-27T04:32:51.024Z,9.30
2019-03-27T04:35:23.484Z,9.30
2019-03-27T04:37:57.517Z,9.40
2019-03-27T04:40:29.868Z,9.40
2019-03-27T04:43:02.379Z,9.30
2019-03-27T04:45:34.860Z,9.40
2019-03-27T04:48:07.283Z,9.40
2019-03-27T04:50:39.749Z,9.40
2019-03-27T04:53:12.213Z,9.40
2019-03-27T04:55:44.901Z,9.40
2019-03-27T04:58:17.353Z,9.30
2019-03-27T05:00:49.899Z,9.30
2019-03-27T05:03:22.351Z,9.30
2019-03-27T05:05:54.847Z,9.30
2019-03-27T05:08:27.324Z,9.30
2019-03-27T05:10:59.790Z,9.30
2019-03-27T05:13:32.259Z,9.20
2019-03-27T05:16:04.848Z,9.30
2019-03-27T05:18:37.309Z,9.20
2019-03-27T05:21:09.963Z,9.30
2019-03-27T05:23:42.401Z,9.30
2019-03-27T05:26:14.885Z,9.30
2019-03-27T05:28:47.345Z,9.30
2019-03-27T05:31:19.837Z,9.30
2019-03-27T05:33:52.334Z,9.30
2019-03-27T05:36:24.803Z,9.30
2019-03-27T05:38:57.284Z,9.30
2019-03-27T05:41:29.757Z,9.30
2019-03-27T05:44:02.241Z,9.30
2019-03-27T05:46:34.687Z,9.40
2019-03-27T05:49:07.253Z,9.30
2019-03-27T05:51:39.718Z,9.30
2019-03-27T05:54:12.186Z,9.40
2019-03-27T05:56:44.656Z,9.40
2019-03-27T05:59:17.130Z,9.40
2019-03-27T06:01:49.739Z,9.40
2019-03-27T06:04:22.174Z,9.40
2019-03-27T06:06:54.678Z,9.40
2019-03-27T06:09:33.253Z,9.40
2019-03-27T06:12:07.258Z,9.40
2019-03-27T06:14:39.732Z,9.30
2019-03-27T06:17:14.511Z,9.40
2019-03-27T06:19:49.303Z,9.40
2019-03-27T06:22:21.725Z,9.40
2019-03-27T06:25:00.404Z,9.40
2019-03-27T06:27:33.110Z,9.40
2019-03-27T06:30:05.842Z,9.40
2019-03-27T06:32:38.885Z,9.50
2019-03-27T06:35:11.590Z,9.50
2019-03-27T06:37:44.165Z,9.50
2019-03-27T06:40:19.125Z,9.60
2019-03-27T06:42:52.899Z,9.60
2019-03-27T06:45:27.128Z,9.60
2019-03-27T06:47:59.865Z,9.60
2019-03-27T06:50:32.459Z,9.60
2019-03-27T06:53:04.997Z,9.60
2019-03-27T06:55:37.446Z,9.50
2019-03-27T06:58:11.057Z,9.50
2019-03-27T07:00:43.754Z,9.50
2019-03-27T07:03:16.251Z,9.50
2019-03-27T07:05:48.779Z,9.50
2019-03-27T07:08:21.423Z,9.50
2019-03-27T07:10:53.973Z,9.50
2019-03-27T07:13:28.012Z,9.60
2019-03-27T07:16:00.537Z,9.60
2019-03-27T07:18:39.866Z,9.70
2019-03-27T07:21:07.640Z,9.80
2019-03-27T07:23:40.281Z,9.90
2019-03-27T07:26:12.861Z,9.90
2019-03-27T07:28:45.387Z,10.00
2019-03-27T07:31:17.935Z,10.10
2019-03-27T07:33:50.420Z,10.10
2019-03-27T07:36:22.901Z,10.10
2019-03-27T07:38:55.867Z,10.30
2019-03-27T07:41:28.942Z,10.40
2019-03-27T07:44:01.408Z,10.40
2019-03-27T07:46:34.025Z,10.50
2019-03-27T07:49:06.524Z,10.70
2019-03-27T07:51:39.072Z,10.80
2019-03-27T07:54:11.605Z,10.90
2019-03-27T07:56:44.279Z,11.00
2019-03-27T07:59:16.902Z,11.20
2019-03-27T08:01:49.486Z,11.30
2019-03-27T08:04:22.000Z,11.40
2019-03-27T08:06:54.793Z,11.50
2019-03-27T08:09:27.329Z,11.50
2019-03-27T08:12:00.981Z,11.60
2019-03-27T08:14:33.467Z,11.80
2019-03-27T08:17:06.112Z,11.90
2019-03-27T08:19:38.577Z,12.00
2019-03-27T08:22:11.118Z,12.20
2019-03-27T08:24:43.763Z,12.30
2019-03-27T08:27:17.844Z,12.40
2019-03-27T08:29:50.562Z,12.40
2019-03-27T08:32:24.235Z,12.50
2019-03-27T08:34:56.728Z,12.50
2019-03-27T08:37:29.239Z,12.60
2019-03-27T08:40:01.962Z,12.60
2019-03-27T08:42:34.541Z,12.70
2019-03-27T08:45:08.360Z,12.70
2019-03-27T08:47:42.076Z,12.80
2019-03-27T08:50:15.094Z,12.70
2019-03-27T08:52:47.729Z,12.80
2019-03-27T08:55:20.399Z,12.70
2019-03-27T08:57:53.008Z,12.70
2019-03-27T09:00:51.250Z,12.60
2019-03-27T09:03:23.759Z,12.70
2019-03-27T09:05:56.448Z,12.80
2019-03-27T09:08:28.916Z,12.90
2019-03-27T09:11:04.462Z,13.00
2019-03-27T09:13:36.055Z,13.00
2019-03-27T09:16:08.679Z,13.10
2019-03-27T09:18:41.438Z,13.10
2019-03-27T09:21:14.083Z,13.20
2019-03-27T09:23:46.895Z,13.20
2019-03-27T09:26:19.541Z,13.20
2019-03-27T09:28:52.074Z,13.30
2019-03-27T09:31:24.640Z,13.30
2019-03-27T09:33:58.660Z,13.40
2019-03-27T09:36:32.471Z,13.40
2019-03-27T09:39:07.529Z,13.50
2019-03-27T09:41:40.190Z,13.50
2019-03-27T09:44:12.713Z,13.50
2019-03-27T09:46:45.263Z,13.50
2019-03-27T09:49:17.759Z,13.60
2019-03-27T09:51:50.309Z,13.60
2019-03-27T09:54:22.800Z,13.60
2019-03-27T09:56:55.315Z,13.60
2019-03-27T09:59:27.861Z,13.60
2019-03-27T10:02:00.372Z,13.50
2019-03-27T10:04:33.064Z,13.60
2019-03-27T10:07:05.630Z,13.60
2019-03-27T10:09:38.201Z,13.70
2019-03-27T10:12:10.704Z,13.70
2019-03-27T10:14:43.226Z,13.80
2019-03-27T10:17:15.740Z,13.90
2019-03-27T10:19:48.439Z,14.00
2019-03-27T10:22:20.987Z,14.00
2019-03-27T10:24:53.566Z,14.10
2019-03-27T10:27:26.065Z,14.20
2019-03-27T10:30:00.421Z,14.30
2019-03-27T10:32:33.255Z,14.40
2019-03-27T10:35:06.965Z,14.50
2019-03-27T10:37:39.521Z,14.50
2019-03-27T10:40:12.103Z,14.50
2019-03-27T10:42:44.701Z,14.60
2019-03-27T10:45:17.227Z,14.60
2019-03-27T10:47:49.752Z,14.60
2019-03-27T10:50:22.285Z,14.70
2019-03-27T10:52:54.986Z,14.80
2019-03-27T10:55:27.524Z,14.90
2019-03-27T10:58:00.127Z,15.00
2019-03-27T11:00:34.621Z,15.10
2019-03-27T11:03:07.115Z,15.40
2019-03-27T11:05:39.686Z,15.60
2019-03-27T11:08:12.296Z,15.70
2019-03-27T11:10:44.988Z,15.90
2019-03-27T11:13:17.606Z,15.90
2019-03-27T11:15:50.093Z,16.00
2019-03-27T11:18:22.690Z,16.00
2019-03-27T11:20:55.208Z,16.10
2019-03-27T11:23:27.879Z,16.20
2019-03-27T11:26:00.403Z,16.30
2019-03-27T11:28:32.906Z,16.40
2019-03-27T11:31:05.597Z,16.50
2019-03-27T11:33:38.305Z,16.70
2019-03-27T11:36:10.950Z,17.10
2019-03-27T11:38:43.465Z,17.60
2019-03-27T11:41:15.970Z,18.20
2019-03-27T11:43:54.697Z,18.90
2019-03-27T11:46:23.015Z,19.40
2019-03-27T11:48:55.558Z,20.00
2019-03-27T11:51:28.103Z,20.20
2019-03-27T11:54:02.731Z,20.40
2019-03-27T11:56:35.409Z,20.30
2019-03-27T11:59:08.274Z,20.20
2019-03-27T12:01:43.747Z,20.00
2019-03-27T12:04:16.453Z,19.80
2019-03-27T12:06:49.018Z,19.60
2019-03-27T12:09:21.587Z,19.40
2019-03-27T12:11:55.107Z,19.20
2019-03-27T12:14:27.690Z,19.00
2019-03-27T12:17:00.342Z,18.90
2019-03-27T12:19:32.893Z,18.70
2019-03-27T12:22:05.568Z,18.60
2019-03-27T12:24:38.194Z,18.60
2019-03-27T12:27:10.765Z,18.60
2019-03-27T12:29:44.522Z,18.50
2019-03-27T12:32:17.099Z,18.50
2019-03-27T12:34:49.917Z,18.50
2019-03-27T12:37:22.614Z,18.50
2019-03-27T12:39:55.279Z,18.50
2019-03-27T12:42:27.890Z,18.50
2019-03-27T12:45:02.011Z,18.40
2019-03-27T12:47:35.076Z,18.40
2019-03-27T12:50:08.802Z,18.30
2019-03-27T12:52:41.338Z,18.30
2019-03-27T12:55:14.007Z,18.30
2019-03-27T12:57:46.495Z,18.30
2019-03-27T13:00:19.249Z,18.40
2019-03-27T13:02:51.987Z,18.60
2019-03-27T13:05:24.595Z,19.00
2019-03-27T13:07:57.108Z,19.40
2019-03-27T13:10:29.603Z,19.90
2019-03-27T13:13:02.130Z,20.30
2019-03-27T13:15:34.742Z,20.60
2019-03-27T13:18:07.334Z,20.80
2019-03-27T13:20:40.046Z,20.90
2019-03-27T13:23:12.656Z,20.90
2019-03-27T13:25:45.191Z,20.80
2019-03-27T13:28:18.953Z,20.80
2019-03-27T13:30:51.547Z,20.90
2019-03-27T13:33:24.073Z,20.90
2019-03-27T13:35:56.572Z,20.90
2019-03-27T13:38:29.227Z,20.90
2019-03-27T13:41:01.804Z,20.90
2019-03-27T13:43:36.649Z,20.80
2019-03-27T13:46:09.268Z,20.70
2019-03-27T13:48:43.385Z,20.50
2019-03-27T13:51:18.664Z,20.40
2019-03-27T13:53:51.366Z,20.30
2019-03-27T13:56:23.916Z,20.20
2019-03-27T13:58:58.942Z,20.10
2019-03-27T14:01:32.955Z,19.90
2019-03-27T14:04:05.447Z,19.70
2019-03-27T14:06:41.010Z,19.50
2019-03-27T14:09:13.557Z,19.30
2019-03-27T14:11:46.168Z,19.20
2019-03-27T14:14:18.742Z,19.10
2019-03-27T14:16:51.361Z,19.00
2019-03-27T14:19:23.949Z,19.00
2019-03-27T14:21:56.616Z,18.90
2019-03-27T14:24:29.279Z,18.90
2019-03-27T14:27:01.835Z,18.80
2019-03-27T14:29:34.454Z,18.70
2019-03-27T14:32:06.997Z,18.60
2019-03-27T14:34:39.612Z,18.50
2019-03-27T14:37:12.165Z,18.50
2019-03-27T14:39:45.718Z,18.40
2019-03-27T14:42:18.344Z,18.30
2019-03-27T14:44:52.834Z,18.20
2019-03-27T14:47:25.918Z,18.20
2019-03-27T14:49:58.543Z,18.10
2019-03-27T14:52:31.312Z,18.10
2019-03-27T14:55:04.157Z,18.10
2019-03-27T14:57:38.777Z,18.10
2019-03-27T15:00:12.512Z,18.10
2019-03-27T15:02:44.989Z,18.10
2019-03-27T15:05:20.124Z,18.00
2019-03-27T15:07:52.652Z,17.90
2019-03-27T15:10:26.459Z,17.90
2019-03-27T15:12:58.940Z,17.90
2019-03-27T15:15:31.603Z,17.80
2019-03-27T15:18:04.131Z,17.70
2019-03-27T15:20:38.136Z,17.70
2019-03-27T15:23:12.950Z,17.60
2019-03-27T15:25:45.672Z,17.50
2019-03-27T15:28:18.256Z,17.40
2019-03-27T15:30:50.852Z,17.40
2019-03-27T15:33:23.404Z,17.30
2019-03-27T15:35:55.905Z,17.20
2019-03-27T15:38:28.482Z,17.10
2019-03-27T15:41:01.154Z,17.10
2019-03-27T15:43:33.665Z,17.10
2019-03-27T15:46:06.340Z,17.10
2019-03-27T15:48:39.135Z,17.10
2019-03-27T15:51:12.982Z,17.10
2019-03-27T15:53:47.331Z,17.10
2019-03-27T15:56:19.907Z,17.00
2019-03-27T15:58:52.481Z,17.00
2019-03-27T16:01:25.113Z,16.90
2019-03-27T16:03:59.180Z,16.90
2019-03-27T16:06:33.451Z,16.80
2019-03-27T16:09:15.339Z,16.80
2019-03-27T16:11:47.978Z,16.70
2019-03-27T16:14:20.628Z,16.70
2019-03-27T16:17:12.018Z,16.70
2019-03-27T16:19:29.859Z,16.70
2019-03-27T16:22:02.373Z,16.60
2019-03-27T16:24:35.332Z,16.60
2019-03-27T16:27:08.185Z,16.60
2019-03-27T16:29:42.141Z,16.60
2019-03-27T16:32:19.336Z,16.50
2019-03-27T16:34:51.831Z,16.50
2019-03-27T16:37:24.664Z,16.40
2019-03-27T16:39:57.198Z,16.40
2019-03-27T16:42:29.914Z,16.40
2019-03-27T16:45:02.589Z,16.30
2019-03-27T16:47:35.211Z,16.30
2019-03-27T16:50:09.118Z,16.30
2019-03-27T16:52:43.227Z,16.30
2019-03-27T16:55:17.674Z,16.30
2019-03-27T16:57:51.404Z,16.20
2019-03-27T17:00:26.719Z,16.20
2019-03-27T17:05:33.935Z,16.20
2019-03-27T17:08:06.919Z,16.20
2019-03-27T17:10:39.492Z,16.20
2019-03-27T17:13:13.222Z,16.20
2019-03-27T17:15:45.771Z,16.20
2019-03-27T17:18:19.542Z,16.10
2019-03-27T17:20:52.259Z,16.10
2019-03-27T17:23:27.509Z,16.10
2019-03-27T17:26:00.247Z,16.10
2019-03-27T17:28:33.000Z,16.00
2019-03-27T17:31:05.873Z,16.00
2019-03-27T17:33:38.611Z,16.00
2019-03-27T17:36:11.291Z,15.90
2019-03-27T17:38:43.937Z,15.90
2019-03-27T17:41:17.671Z,15.80
2019-03-27T17:43:50.266Z,15.70
2019-03-27T17:46:22.812Z,15.70
2019-03-27T17:48:57.202Z,15.60
2019-03-27T17:51:29.777Z,15.60
2019-03-27T17:54:02.519Z,15.50
2019-03-27T17:56:35.335Z,15.50
2019-03-27T17:59:07.969Z,15.40
2019-03-27T18:01:42.354Z,15.40
2019-03-27T18:04:15.021Z,15.30
2019-03-27T18:06:47.655Z,15.30
2019-03-27T18:09:20.424Z,15.30
2019-03-27T18:11:52.942Z,15.20
2019-03-27T18:14:25.729Z,15.20
2019-03-27T18:16:59.856Z,15.20
2019-03-27T18:19:32.537Z,15.20
2019-03-27T18:22:07.848Z,15.20
2019-03-27T18:24:42.222Z,15.10
2019-03-27T18:27:14.785Z,15.10
2019-03-27T18:29:47.437Z,15.10
2019-03-27T18:32:20.251Z,15.10
2019-03-27T18:34:52.853Z,15.00
2019-03-27T18:37:25.663Z,15.00
2019-03-27T18:39:58.188Z,15.00
2019-03-27T18:42:30.983Z,15.00
2019-03-27T18:45:03.622Z,15.00
2019-03-27T18:47:36.279Z,14.90
2019-03-27T18:50:09.036Z,15.00
2019-03-27T18:52:41.740Z,15.00
2019-03-27T18:55:25.770Z,14.90
2019-03-27T18:57:59.462Z,15.00
2019-03-27T19:00:24.082Z,14.90
2019-03-27T19:02:56.716Z,14.90
2019-03-27T19:05:29.280Z,14.90
2019-03-27T19:08:01.879Z,14.90
2019-03-27T19:10:34.742Z,14.90
2019-03-27T19:13:07.546Z,14.90
2019-03-27T19:15:40.325Z,14.80
2019-03-27T19:18:12.908Z,14.80
2019-03-27T19:20:45.667Z,14.80
2019-03-27T19:23:18.225Z,14.80
2019-03-27T19:25:50.782Z,14.80
2019-03-27T19:28:24.772Z,14.70
2019-03-27T19:30:57.322Z,14.70
2019-03-27T19:33:29.934Z,14.70
2019-03-27T19:36:02.569Z,14.70
2019-03-27T19:38:35.142Z,14.70
2019-03-27T19:41:07.819Z,14.70
2019-03-27T19:43:40.537Z,14.70
2019-03-27T19:46:13.393Z,14.70
2019-03-27T19:48:47.282Z,14.60
2019-03-27T19:51:20.050Z,14.60
2019-03-27T19:53:54.420Z,14.60
2019-03-27T19:56:27.011Z,14.60
2019-03-27T19:58:59.700Z,14.60
2019-03-27T20:01:34.135Z,14.50
2019-03-27T20:04:06.911Z,14.50
2019-03-27T20:06:39.637Z,14.50
2019-03-27T20:09:12.359Z,14.50
2019-03-27T20:11:45.112Z,14.40
2019-03-27T20:14:17.739Z,14.40
2019-03-27T20:16:53.236Z,14.40
2019-03-27T20:19:25.980Z,14.40
2019-03-27T20:21:58.523Z,14.30
2019-03-27T20:24:40.877Z,14.30
2019-03-27T20:27:05.419Z,14.30
2019-03-27T20:29:38.013Z,14.30
2019-03-27T20:32:10.728Z,14.30
2019-03-27T20:34:44.394Z,14.30
2019-03-27T20:37:18.514Z,14.30
2019-03-27T20:39:52.482Z,14.30
2019-03-27T20:42:25.117Z,14.30
2019-03-27T20:44:57.862Z,14.30
2019-03-27T20:47:30.427Z,14.20
2019-03-27T20:50:05.578Z,14.20
2019-03-27T20:52:39.678Z,14.20
2019-03-27T20:55:12.940Z,14.20
2019-03-27T20:57:45.629Z,14.20
2019-03-27T21:00:18.814Z,14.20
2019-03-27T21:02:51.465Z,14.20
2019-03-27T21:05:24.095Z,14.10
2019-03-27T21:07:58.130Z,14.10
2019-03-27T21:10:30.623Z,14.10
2019-03-27T21:13:05.041Z,14.10
2019-03-27T21:15:38.830Z,14.10
2019-03-27T21:18:11.601Z,14.10
2019-03-27T21:20:44.316Z,14.00
2019-03-27T21:23:16.907Z,14.00
2019-03-27T21:25:49.467Z,13.80
2019-03-27T21:28:22.096Z,14.00
2019-03-27T21:30:54.736Z,14.00
2019-03-27T21:33:27.297Z,14.00
2019-03-27T21:36:00.103Z,13.90
2019-03-27T21:38:34.000Z,13.90
2019-03-27T21:41:06.658Z,13.90
2019-03-27T21:43:39.214Z,13.90
2019-03-27T21:46:13.557Z,13.90
2019-03-27T21:48:47.323Z,13.90
2019-03-27T21:51:21.415Z,13.90
2019-03-27T21:53:53.997Z,13.80
2019-03-27T21:56:26.689Z,13.80
2019-03-27T21:59:02.343Z,13.80
2019-03-27T22:01:33.717Z,13.80
2019-03-27T22:04:06.418Z,13.80
2019-03-27T22:06:40.865Z,13.80
2019-03-27T22:09:13.452Z,13.80
2019-03-27T22:11:46.249Z,13.80
2019-03-27T22:14:19.025Z,13.70
2019-03-27T22:16:51.573Z,13.80
2019-03-27T22:19:24.116Z,13.80
2019-03-27T22:21:56.631Z,13.70
2019-03-27T22:24:29.240Z,13.70
2019-03-27T22:27:01.899Z,13.70
2019-03-27T22:29:34.647Z,13.70
2019-03-27T22:32:07.228Z,13.70
2019-03-27T22:34:39.943Z,13.70
2019-03-27T22:37:12.535Z,13.70
2019-03-27T22:39:45.031Z,13.70
2019-03-27T22:42:17.685Z,13.60
2019-03-27T22:44:51.478Z,13.60
2019-03-27T22:47:24.082Z,13.60
2019-03-27T22:49:56.651Z,13.60
2019-03-27T22:52:29.147Z,13.70
2019-03-27T22:55:01.984Z,13.60
2019-03-27T22:57:34.517Z,13.60
2019-03-27T23:00:09.755Z,13.60
2019-03-27T23:02:42.842Z,13.60
2019-03-27T23:05:15.696Z,13.60
2019-03-27T23:07:48.550Z,13.50
2019-03-27T23:10:21.108Z,13.50
2019-03-27T23:12:53.653Z,13.50
2019-03-27T23:15:26.419Z,13.50
2019-03-27T23:17:59.065Z,13.50
2019-03-27T23:20:31.719Z,13.50
2019-03-27T23:23:04.247Z,13.50
2019-03-27T23:25:36.857Z,13.50
2019-03-27T23:28:09.407Z,13.40
2019-03-27T23:30:41.977Z,13.40
2019-03-27T23:33:14.473Z,13.40
2019-03-27T23:35:47.017Z,13.40
2019-03-27T23:38:19.537Z,13.40
2019-03-27T23:40:52.022Z,13.30
2019-03-27T23:43:24.593Z,13.30
2019-03-27T23:45:57.275Z,13.30
2019-03-27T23:48:29.760Z,13.30
2019-03-27T23:51:03.553Z,13.30
2019-03-27T23:53:36.122Z,13.30
2019-03-27T23:56:16.494Z,13.30
2019-03-27T23:58:44.005Z,13.30
